createdAt,value
2023-03-14T00:02:01.454Z,19.60
2023-03-14T00:04:29.645Z,19.90
2023-03-14T00:06:57.839Z,20.00
2023-03-14T00:09:27.731Z,20.70
2023-03-14T00:11:56.235Z,20.90
2023-03-14T00:14:24.535Z,21.00
2023-03-14T00:16:52.728Z,20.10
2023-03-14T00:19:20.902Z,20.10
2023-03-14T00:21:49.227Z,19.80
2023-03-14T00:24:17.380Z,20.00
2023-03-14T00:26:46.915Z,20.30
2023-03-14T00:29:15.085Z,19.90
2023-03-14T00:31:43.344Z,20.40
2023-03-14T00:34:11.555Z,20.60
2023-03-14T00:36:39.772Z,20.10
2023-03-14T00:39:08.590Z,20.40
2023-03-14T00:41:36.780Z,20.60
2023-03-14T00:44:08.671Z,20.50
2023-03-14T00:46:38.980Z,20.70
2023-03-14T00:49:07.932Z,20.80
2023-03-14T00:51:36.238Z,21.00
2023-03-14T00:54:04.536Z,20.70
2023-03-14T00:56:33.056Z,20.80
2023-03-14T00:59:01.323Z,20.80
2023-03-14T01:01:30.894Z,21.10
2023-03-14T01:03:59.335Z,20.90
2023-03-14T01:06:29.848Z,20.80
2023-03-14T01:08:59.177Z,21.00
2023-03-14T01:11:30.533Z,20.80
2023-03-14T01:13:59.864Z,20.50
2023-03-14T01:16:35.994Z,19.50
2023-03-14T01:19:05.004Z,20.00
2023-03-14T01:21:35.307Z,20.10
2023-03-14T01:24:05.357Z,20.70
2023-03-14T01:26:35.543Z,20.50
2023-03-14T01:29:05.140Z,19.80
2023-03-14T01:31:37.917Z,19.30
2023-03-14T01:34:06.362Z,19.90
2023-03-14T01:36:34.903Z,19.40
2023-03-14T01:39:04.198Z,18.90
2023-03-14T01:41:32.507Z,19.00
2023-03-14T01:44:01.842Z,18.90
2023-03-14T01:46:40.268Z,18.60
2023-03-14T01:49:24.494Z,19.10
2023-03-14T01:52:04.063Z,19.40
2023-03-14T01:54:36.433Z,20.00
2023-03-14T01:57:10.147Z,19.60
2023-03-14T01:59:40.222Z,19.90
2023-03-14T02:02:14.111Z,19.90
2023-03-14T02:04:43.533Z,20.00
2023-03-14T02:07:17.456Z,20.10
2023-03-14T02:09:56.335Z,19.50
2023-03-14T02:12:28.068Z,19.40
2023-03-14T02:15:22.726Z,19.80
2023-03-14T02:18:04.727Z,20.20
2023-03-14T02:20:55.392Z,19.60
2023-03-14T02:23:31.699Z,19.30
2023-03-14T02:26:05.464Z,19.20
2023-03-14T02:28:35.231Z,19.10
2023-03-14T02:31:05.195Z,19.40
2023-03-14T02:33:37.516Z,19.50
2023-03-14T02:36:09.597Z,19.50
2023-03-14T02:38:43.534Z,19.20
2023-03-14T02:41:11.772Z,18.80
2023-03-14T02:43:47.138Z,19.60
2023-03-14T02:46:19.810Z,19.90
2023-03-14T02:48:51.248Z,20.30
2023-03-14T02:51:19.824Z,20.40
2023-03-14T02:53:49.626Z,20.10
2023-03-14T02:56:18.325Z,19.40
2023-03-14T02:58:47.956Z,19.50
2023-03-14T03:01:39.102Z,19.60
2023-03-14T03:04:07.620Z,20.30
2023-03-14T03:06:35.861Z,20.40
2023-03-14T03:09:04.256Z,19.80
2023-03-14T03:11:32.938Z,19.80
2023-03-14T03:14:03.038Z,20.10
2023-03-14T03:16:31.590Z,20.40
2023-03-14T03:18:59.781Z,20.30
2023-03-14T03:21:28.206Z,20.10
2023-03-14T03:23:56.359Z,20.50
2023-03-14T03:26:24.594Z,20.20
2023-03-14T03:28:53.226Z,19.80
2023-03-14T03:31:23.077Z,19.80
2023-03-14T03:33:51.248Z,19.90
2023-03-14T03:36:23.471Z,19.80
2023-03-14T03:38:51.990Z,19.60
2023-03-14T03:41:20.331Z,19.90
2023-03-14T03:43:50.192Z,18.90
2023-03-14T03:46:19.149Z,19.80
2023-03-14T03:48:48.766Z,19.30
2023-03-14T03:51:18.156Z,18.70
2023-03-14T03:53:46.499Z,19.20
2023-03-14T03:56:18.452Z,19.10
2023-03-14T03:58:46.822Z,19.30
2023-03-14T04:01:15.016Z,19.70
2023-03-14T04:03:44.213Z,19.80
2023-03-14T04:06:15.482Z,18.90
2023-03-14T04:08:47.040Z,19.10
2023-03-14T04:11:32.463Z,19.60
2023-03-14T04:14:20.884Z,19.70
2023-03-14T04:16:51.282Z,20.30
2023-03-14T04:19:23.118Z,20.70
2023-03-14T04:21:55.182Z,20.00
2023-03-14T04:24:26.151Z,20.10
2023-03-14T04:26:54.753Z,19.20
2023-03-14T04:29:23.001Z,20.20
2023-03-14T04:31:51.392Z,19.90
2023-03-14T04:34:19.567Z,19.50
2023-03-14T04:36:54.488Z,19.80
2023-03-14T04:39:28.864Z,19.90
2023-03-14T04:42:08.717Z,19.40
2023-03-14T04:44:39.255Z,19.60
2023-03-14T04:47:08.348Z,19.90
2023-03-14T04:49:36.976Z,19.60
2023-03-14T04:52:07.791Z,20.30
2023-03-14T04:54:38.207Z,20.10
2023-03-14T04:57:09.597Z,20.40
2023-03-14T04:59:39.679Z,21.00
2023-03-14T05:02:37.465Z,21.10
2023-03-14T05:05:16.757Z,21.00
2023-03-14T05:08:03.836Z,21.10
2023-03-14T05:10:44.297Z,20.60
2023-03-14T05:13:32.711Z,21.00
2023-03-14T05:16:26.927Z,20.30
2023-03-14T05:19:03.155Z,19.90
2023-03-14T05:21:49.726Z,20.30
2023-03-14T05:24:19.265Z,20.70
2023-03-14T05:27:01.282Z,21.10
2023-03-14T05:29:41.005Z,21.40
2023-03-14T05:32:24.484Z,21.40
2023-03-14T05:35:11.443Z,20.90
2023-03-14T05:38:02.482Z,21.50
2023-03-14T05:40:34.672Z,20.20
2023-03-14T05:43:09.267Z,20.30
2023-03-14T05:45:55.201Z,20.80
2023-03-14T05:48:45.893Z,21.00
2023-03-14T05:51:23.057Z,20.30
2023-03-14T05:54:23.413Z,20.00
2023-03-14T05:57:28.418Z,20.70
2023-03-14T06:00:15.925Z,20.40
2023-03-14T06:03:19.546Z,21.10
2023-03-14T06:05:52.144Z,21.50
2023-03-14T06:08:22.475Z,22.00
2023-03-14T06:10:50.996Z,22.30
2023-03-14T06:13:22.778Z,22.20
2023-03-14T06:15:50.954Z,22.00
2023-03-14T06:18:19.141Z,22.40
2023-03-14T06:20:47.537Z,22.80
2023-03-14T06:23:23.971Z,23.00
2023-03-14T06:25:52.378Z,23.00
2023-03-14T06:28:25.998Z,23.10
2023-03-14T06:30:55.127Z,23.00
2023-03-14T06:33:23.409Z,23.40
2023-03-14T06:35:51.840Z,22.90
2023-03-14T06:38:20.126Z,22.70
2023-03-14T06:40:48.912Z,22.90
2023-03-14T06:43:24.096Z,22.50
2023-03-14T06:45:53.813Z,21.80
2023-03-14T06:48:22.124Z,21.70
2023-03-14T06:50:54.181Z,21.60
2023-03-14T06:53:24.466Z,21.50
2023-03-14T06:55:53.223Z,22.00
2023-03-14T06:58:23.473Z,22.80
2023-03-14T07:00:51.721Z,23.40
2023-03-14T07:03:25.466Z,23.90
2023-03-14T07:05:56.333Z,24.40
2023-03-14T07:08:24.486Z,24.80
2023-03-14T07:10:52.706Z,25.10
2023-03-14T07:13:20.868Z,25.30
2023-03-14T07:16:09.963Z,25.50
2023-03-14T07:18:39.702Z,25.70
2023-03-14T07:21:10.013Z,25.80
2023-03-14T07:23:39.790Z,25.90
2023-03-14T07:26:10.478Z,26.00
2023-03-14T07:28:44.421Z,26.10
2023-03-14T07:31:18.068Z,26.20
2023-03-14T07:33:46.384Z,26.20
2023-03-14T07:36:14.748Z,26.40
2023-03-14T07:38:45.793Z,26.50
2023-03-14T07:41:29.316Z,26.50
2023-03-14T07:44:23.434Z,26.60
2023-03-14T07:46:53.105Z,26.80
2023-03-14T07:49:21.390Z,26.90
2023-03-14T07:51:50.111Z,27.00
2023-03-14T07:54:20.129Z,27.00
2023-03-14T07:56:49.060Z,26.90
2023-03-14T07:59:17.244Z,26.80
2023-03-14T08:01:47.884Z,26.30
2023-03-14T08:04:17.438Z,26.30
2023-03-14T08:06:45.633Z,26.20
2023-03-14T08:09:16.449Z,26.40
2023-03-14T08:11:44.617Z,25.70
2023-03-14T08:14:13.141Z,26.00
2023-03-14T08:16:41.269Z,26.00
2023-03-14T08:19:09.589Z,25.90
2023-03-14T08:21:39.127Z,25.40
2023-03-14T08:24:07.696Z,24.90
2023-03-14T08:26:35.903Z,25.20
2023-03-14T08:29:05.645Z,25.30
2023-03-14T08:31:33.870Z,25.20
2023-03-14T08:34:02.786Z,25.20
2023-03-14T08:36:31.901Z,25.00
2023-03-14T08:39:01.697Z,26.00
2023-03-14T08:41:30.065Z,26.30
2023-03-14T08:43:58.269Z,26.90
2023-03-14T08:46:26.724Z,26.80
2023-03-14T08:48:54.963Z,26.60
2023-03-14T08:51:23.142Z,25.90
2023-03-14T08:53:51.281Z,25.50
2023-03-14T08:56:20.841Z,25.40
2023-03-14T08:58:49.055Z,25.00
2023-03-14T09:01:17.298Z,24.80
2023-03-14T09:03:47.085Z,24.50
2023-03-14T09:06:15.315Z,24.80
2023-03-14T09:08:43.590Z,24.80
2023-03-14T09:11:11.906Z,24.20
2023-03-14T09:13:41.720Z,23.60
2023-03-14T09:16:10.753Z,23.10
2023-03-14T09:18:39.078Z,22.70
2023-03-14T09:21:07.832Z,22.40
2023-03-14T09:23:35.984Z,22.50
2023-03-14T09:26:04.553Z,22.40
2023-03-14T09:28:32.730Z,22.60
2023-03-14T09:31:08.830Z,22.40
2023-03-14T09:33:37.116Z,22.10
2023-03-14T09:36:06.030Z,21.90
2023-03-14T09:38:34.534Z,21.90
2023-03-14T09:41:04.695Z,22.30
2023-03-14T09:43:35.302Z,22.30
2023-03-14T09:46:07.841Z,22.40
2023-03-14T09:48:36.838Z,22.40
2023-03-14T09:51:09.786Z,22.40
2023-03-14T09:53:43.525Z,22.40
2023-03-14T09:56:16.417Z,22.70
2023-03-14T09:58:50.055Z,22.90
2023-03-14T10:01:24.832Z,22.80
2023-03-14T10:03:55.711Z,22.90
2023-03-14T10:06:27.443Z,22.90
2023-03-14T10:08:57.702Z,23.00
2023-03-14T10:11:26.547Z,22.70
2023-03-14T10:14:06.863Z,23.20
2023-03-14T10:16:39.507Z,23.40
2023-03-14T10:19:10.231Z,23.10
2023-03-14T10:21:40.355Z,22.80
2023-03-14T10:24:19.308Z,22.50
2023-03-14T10:26:51.680Z,22.60
2023-03-14T10:29:19.848Z,22.60
2023-03-14T10:31:54.357Z,22.20
2023-03-14T10:34:27.449Z,22.20
2023-03-14T10:36:57.489Z,22.50
2023-03-14T10:39:42.400Z,22.70
2023-03-14T10:42:18.286Z,22.90
2023-03-14T10:44:46.871Z,23.20
2023-03-14T10:47:21.929Z,23.50
2023-03-14T10:49:50.269Z,23.30
2023-03-14T10:52:31.260Z,23.10
2023-03-14T10:55:14.031Z,23.20
2023-03-14T10:57:42.464Z,22.90
2023-03-14T11:00:18.830Z,22.90
2023-03-14T11:03:09.028Z,22.90
2023-03-14T11:05:42.874Z,22.70
2023-03-14T11:08:16.284Z,22.50
2023-03-14T11:10:48.921Z,22.30
2023-03-14T11:13:21.835Z,22.40
2023-03-14T11:15:59.052Z,22.20
2023-03-14T11:18:49.823Z,22.50
2023-03-14T11:21:23.662Z,22.30
2023-03-14T11:24:00.858Z,22.30
2023-03-14T11:26:38.061Z,22.20
2023-03-14T11:29:21.408Z,21.80
2023-03-14T11:31:49.928Z,21.70
2023-03-14T11:34:29.892Z,21.90
2023-03-14T11:37:03.139Z,22.00
2023-03-14T11:39:39.790Z,21.90
2023-03-14T11:42:14.966Z,22.20
2023-03-14T11:44:45.565Z,22.30
2023-03-14T11:47:19.417Z,22.40
2023-03-14T11:49:53.773Z,22.40
2023-03-14T11:52:27.719Z,21.70
2023-03-14T11:55:00.452Z,21.80
2023-03-14T11:57:28.860Z,21.80
2023-03-14T12:00:02.434Z,21.70
2023-03-14T12:02:49.908Z,21.70
2023-03-14T12:05:51.180Z,21.80
2023-03-14T12:08:51.739Z,21.50
2023-03-14T12:11:34.625Z,21.70
2023-03-14T12:14:03.653Z,21.80
2023-03-14T12:16:41.591Z,21.80
2023-03-14T12:19:40.771Z,21.50
2023-03-14T12:22:31.892Z,21.60
2023-03-14T12:25:07.629Z,21.70
2023-03-14T12:27:53.452Z,21.80
2023-03-14T12:30:31.041Z,21.90
2023-03-14T12:33:23.864Z,21.90
2023-03-14T12:35:53.359Z,21.80
2023-03-14T12:38:30.039Z,22.60
2023-03-14T12:41:03.676Z,22.50
2023-03-14T12:43:34.175Z,22.90
2023-03-14T12:46:22.304Z,22.80
2023-03-14T12:48:52.711Z,23.60
2023-03-14T12:51:22.612Z,23.70
2023-03-14T12:54:17.175Z,24.10
2023-03-14T12:56:59.613Z,24.60
2023-03-14T12:59:35.568Z,24.50
2023-03-14T13:02:28.351Z,24.90
2023-03-14T13:05:12.327Z,24.60
2023-03-14T13:08:07.616Z,24.70
2023-03-14T13:10:47.257Z,24.60
2023-03-14T13:13:22.780Z,24.30
2023-03-14T13:15:58.768Z,24.70
2023-03-14T13:18:32.802Z,24.50
2023-03-14T13:21:04.590Z,24.70
2023-03-14T13:23:35.202Z,24.50
2023-03-14T13:26:05.080Z,24.50
2023-03-14T13:28:33.944Z,24.50
2023-03-14T13:31:05.848Z,24.60
2023-03-14T13:33:36.469Z,24.60
2023-03-14T13:36:07.182Z,25.10
2023-03-14T13:38:37.993Z,25.40
2023-03-14T13:41:09.810Z,25.60
2023-03-14T13:43:42.141Z,25.80
2023-03-14T13:46:16.447Z,25.80
2023-03-14T13:48:47.407Z,25.30
2023-03-14T13:51:18.455Z,25.40
2023-03-14T13:53:49.994Z,25.30
2023-03-14T13:56:20.684Z,24.70
2023-03-14T13:58:56.867Z,24.60
2023-03-14T14:01:28.001Z,23.90
2023-03-14T14:03:58.699Z,23.40
2023-03-14T14:06:32.745Z,22.60
2023-03-14T14:09:03.960Z,22.00
2023-03-14T14:12:11.474Z,21.90
2023-03-14T14:14:45.231Z,21.50
2023-03-14T14:17:16.346Z,21.30
2023-03-14T14:19:45.994Z,21.40
2023-03-14T14:22:14.611Z,21.50
2023-03-14T14:24:43.420Z,21.40
2023-03-14T14:27:17.747Z,21.10
2023-03-14T14:29:58.200Z,21.10
2023-03-14T14:32:26.451Z,21.40
2023-03-14T14:35:04.868Z,21.20
2023-03-14T14:37:34.717Z,21.40
2023-03-14T14:40:11.506Z,21.50
2023-03-14T14:42:43.649Z,21.50
2023-03-14T14:45:18.519Z,21.50
2023-03-14T14:47:53.935Z,21.40
2023-03-14T14:50:31.455Z,21.70
2023-03-14T14:53:00.785Z,21.70
2023-03-14T14:55:34.919Z,21.60
2023-03-14T14:58:22.942Z,22.00
2023-03-14T15:00:58.289Z,21.50
2023-03-14T15:03:30.726Z,21.40
2023-03-14T15:05:59.190Z,21.40
2023-03-14T15:08:33.864Z,21.40
2023-03-14T15:11:02.090Z,21.30
2023-03-14T15:13:31.772Z,21.00
2023-03-14T15:16:00.116Z,21.40
2023-03-14T15:18:32.412Z,21.20
2023-03-14T15:21:01.116Z,21.10
2023-03-14T15:23:29.342Z,21.60
2023-03-14T15:25:58.534Z,21.80
2023-03-14T15:28:28.471Z,22.30
2023-03-14T15:31:01.268Z,22.10
2023-03-14T15:33:30.060Z,22.30
2023-03-14T15:35:58.860Z,22.90
2023-03-14T15:38:27.111Z,23.10
2023-03-14T15:40:55.481Z,22.60
2023-03-14T15:43:23.766Z,22.70
2023-03-14T15:45:52.212Z,22.60
2023-03-14T15:48:23.219Z,23.10
2023-03-14T15:50:52.690Z,23.10
2023-03-14T15:53:20.860Z,23.40
2023-03-14T15:55:49.006Z,23.70
2023-03-14T15:58:21.680Z,24.30
2023-03-14T16:00:51.105Z,24.70
2023-03-14T16:03:19.425Z,25.10
2023-03-14T16:05:49.120Z,24.80
2023-03-14T16:08:17.421Z,24.40
2023-03-14T16:10:47.021Z,23.80
2023-03-14T16:13:15.171Z,23.30
2023-03-14T16:15:43.390Z,22.90
2023-03-14T16:18:21.290Z,22.90
2023-03-14T16:20:59.141Z,22.40
2023-03-14T16:23:30.533Z,22.50
2023-03-14T16:25:59.286Z,22.20
2023-03-14T16:28:28.149Z,22.10
2023-03-14T16:31:01.938Z,22.70
2023-03-14T16:33:32.892Z,23.00
2023-03-14T16:36:06.138Z,23.40
2023-03-14T16:38:34.796Z,23.50
2023-03-14T16:41:04.947Z,23.90
2023-03-14T16:43:37.079Z,24.20
2023-03-14T16:46:06.624Z,24.40
2023-03-14T16:48:35.546Z,24.40
2023-03-14T16:51:05.268Z,24.70
2023-03-14T16:53:33.505Z,24.70
2023-03-14T16:56:01.766Z,24.90
2023-03-14T16:58:31.317Z,25.00
2023-03-14T17:01:00.366Z,24.90
2023-03-14T17:03:28.784Z,24.70
2023-03-14T17:05:57.028Z,24.30
2023-03-14T17:08:26.625Z,23.40
2023-03-14T17:10:54.802Z,23.30
2023-03-14T17:13:25.666Z,23.40
2023-03-14T17:15:55.677Z,22.60
2023-03-14T17:18:24.487Z,22.70
2023-03-14T17:20:53.118Z,23.20
2023-03-14T17:23:21.932Z,23.60
2023-03-14T17:25:52.526Z,24.00
2023-03-14T17:28:23.078Z,24.20
2023-03-14T17:30:52.075Z,23.90
2023-03-14T17:33:20.217Z,23.80
2023-03-14T17:35:48.427Z,24.30
2023-03-14T17:38:16.635Z,24.60
2023-03-14T17:40:48.708Z,24.80
2023-03-14T17:43:19.056Z,24.90
2023-03-14T17:45:47.444Z,25.00
2023-03-14T17:48:15.584Z,24.60
2023-03-14T17:50:43.749Z,24.50
2023-03-14T17:53:12.212Z,24.40
2023-03-14T17:55:41.576Z,24.70
2023-03-14T17:58:09.786Z,24.70
2023-03-14T18:00:40.060Z,24.50
2023-03-14T18:03:08.437Z,24.40
2023-03-14T18:05:39.903Z,24.50
2023-03-14T18:08:13.451Z,24.60
2023-03-14T18:10:41.996Z,24.70
2023-03-14T18:13:10.380Z,24.70
2023-03-14T18:15:40.095Z,24.60
2023-03-14T18:18:08.296Z,24.10
2023-03-14T18:20:36.626Z,24.10
2023-03-14T18:23:06.965Z,24.10
2023-03-14T18:25:35.160Z,23.90
2023-03-14T18:28:03.333Z,23.30
2023-03-14T18:30:31.534Z,23.70
2023-03-14T18:33:01.241Z,23.80
2023-03-14T18:35:35.255Z,24.10
2023-03-14T18:38:03.405Z,23.50
2023-03-14T18:40:31.615Z,23.50
2023-03-14T18:42:59.782Z,23.40
2023-03-14T18:45:27.915Z,23.50
2023-03-14T18:47:56.108Z,23.30
2023-03-14T18:50:25.654Z,23.30
2023-03-14T18:52:56.809Z,23.10
2023-03-14T18:55:24.946Z,23.00
2023-03-14T18:57:53.669Z,23.00
2023-03-14T19:00:22.622Z,23.20
2023-03-14T19:02:52.741Z,23.30
2023-03-14T19:05:21.103Z,23.40
2023-03-14T19:07:50.697Z,23.40
2023-03-14T19:10:19.069Z,22.90
2023-03-14T19:12:49.370Z,22.70
2023-03-14T19:15:17.814Z,22.80
2023-03-14T19:17:45.979Z,22.30
2023-03-14T19:20:14.319Z,22.20
2023-03-14T19:22:42.576Z,22.20
2023-03-14T19:25:12.325Z,22.50
2023-03-14T19:27:40.741Z,22.00
2023-03-14T19:30:10.301Z,22.00
2023-03-14T19:32:38.506Z,22.00
2023-03-14T19:35:07.606Z,21.60
2023-03-14T19:37:35.852Z,21.60
2023-03-14T19:40:04.645Z,22.00
2023-03-14T19:42:34.342Z,21.80
2023-03-14T19:45:02.616Z,22.10
2023-03-14T19:47:30.992Z,21.90
2023-03-14T19:49:59.681Z,22.10
2023-03-14T19:52:27.903Z,21.80
2023-03-14T19:54:57.374Z,21.40
2023-03-14T19:57:25.666Z,21.50
2023-03-14T19:59:55.197Z,21.50
2023-03-14T20:02:23.503Z,21.50
2023-03-14T20:04:54.441Z,21.10
2023-03-14T20:07:23.564Z,21.00
2023-03-14T20:09:51.740Z,20.70
2023-03-14T20:12:19.881Z,20.90
2023-03-14T20:14:48.086Z,21.10
2023-03-14T20:17:17.692Z,20.90
2023-03-14T20:19:46.341Z,20.80
2023-03-14T20:22:14.645Z,21.10
2023-03-14T20:24:42.920Z,20.80
2023-03-14T20:27:13.508Z,21.20
2023-03-14T20:29:41.676Z,21.50
2023-03-14T20:32:09.817Z,21.20
2023-03-14T20:34:40.070Z,21.10
2023-03-14T20:37:08.677Z,21.30
2023-03-14T20:39:36.916Z,21.40
2023-03-14T20:42:05.384Z,21.50
2023-03-14T20:44:33.671Z,21.80
2023-03-14T20:47:03.614Z,21.60
2023-03-14T20:49:31.840Z,21.50
2023-03-14T20:52:01.434Z,21.90
2023-03-14T20:54:29.595Z,22.10
2023-03-14T20:56:57.775Z,22.20
2023-03-14T20:59:28.046Z,22.30
2023-03-14T21:01:57.768Z,22.50
2023-03-14T21:04:28.532Z,22.40
2023-03-14T21:06:56.775Z,21.60
2023-03-14T21:09:27.413Z,21.00
2023-03-14T21:11:55.629Z,20.60
2023-03-14T21:14:24.598Z,20.40
2023-03-14T21:16:57.036Z,20.60
2023-03-14T21:19:30.384Z,20.30
2023-03-14T21:21:59.546Z,19.90
2023-03-14T21:24:31.062Z,19.80
2023-03-14T21:26:59.587Z,20.20
2023-03-14T21:29:27.898Z,20.10
2023-03-14T21:31:56.210Z,19.70
2023-03-14T21:34:26.744Z,20.00
2023-03-14T21:36:55.701Z,20.20
2023-03-14T21:39:24.324Z,19.90
2023-03-14T21:41:53.860Z,20.10
2023-03-14T21:44:22.192Z,20.10
2023-03-14T21:46:50.712Z,20.60
2023-03-14T21:49:19.372Z,21.00
2023-03-14T21:51:47.542Z,20.90
2023-03-14T21:54:16.582Z,21.30
2023-03-14T21:56:45.385Z,21.50
2023-03-14T21:59:15.504Z,21.80
2023-03-14T22:01:43.803Z,21.80
2023-03-14T22:04:12.028Z,22.00
2023-03-14T22:06:40.184Z,22.00
2023-03-14T22:09:08.554Z,21.70
2023-03-14T22:11:36.818Z,21.80
2023-03-14T22:14:05.101Z,21.40
2023-03-14T22:16:34.730Z,21.70
2023-03-14T22:19:02.947Z,21.40
2023-03-14T22:21:31.535Z,21.60
2023-03-14T22:23:59.678Z,20.80
2023-03-14T22:26:30.702Z,20.80
2023-03-14T22:28:59.083Z,20.50
2023-03-14T22:31:27.305Z,20.30
2023-03-14T22:33:56.846Z,20.80
2023-03-14T22:36:25.047Z,20.40
2023-03-14T22:38:53.260Z,20.50
2023-03-14T22:41:21.465Z,20.80
2023-03-14T22:43:52.046Z,20.80
2023-03-14T22:46:20.460Z,21.30
2023-03-14T22:48:50.723Z,21.40
2023-03-14T22:51:20.418Z,21.80
2023-03-14T22:53:50.175Z,21.30
2023-03-14T22:56:18.430Z,21.50
2023-03-14T22:58:46.637Z,21.60
2023-03-14T23:01:15.297Z,21.70
2023-03-14T23:03:43.512Z,21.80
2023-03-14T23:06:11.723Z,21.80
2023-03-14T23:08:41.661Z,22.00
2023-03-14T23:11:10.196Z,22.00
2023-03-14T23:13:38.377Z,22.10
2023-03-14T23:16:10.528Z,22.30
2023-03-14T23:18:41.469Z,22.00
2023-03-14T23:21:12.424Z,22.20
2023-03-14T23:23:42.976Z,22.40
2023-03-14T23:26:13.577Z,22.20
2023-03-14T23:28:43.254Z,22.00
2023-03-14T23:31:14.472Z,22.40
2023-03-14T23:33:44.242Z,21.90
2023-03-14T23:36:14.167Z,20.70
2023-03-14T23:38:44.580Z,19.10
2023-03-14T23:41:14.517Z,18.10
2023-03-14T23:43:44.173Z,17.50
2023-03-14T23:46:12.813Z,17.70
2023-03-14T23:48:41.136Z,17.30
2023-03-14T23:51:11.775Z,16.80
2023-03-14T23:53:40.924Z,16.60
2023-03-14T23:56:11.950Z,16.70
2023-03-14T23:58:40.834Z,16.40
